Schaan, Liechtenstein
Current Conditions -  °F | °C
As of 9:50 AM on Monday 24 Nov 2014 (Local Time) from LSZR Reporting Station
Moderate Fog Moderate Fog  
Wind Chill: 41°   Ceiling: Unl
Heat Index: 45°   Visibility: 0.25mi
Dew Point: 45°   Wind: 7mph
Humidity: 100%   Direction: 100°E
Pressure: 30.18"   Gusts: NA
Location:  47.17°N, 9.51°E
Report Text: LSZR 240750Z 10006KT 0400 R10/0600N FG VV/// 07/07 Q1022 NOSIG RMK F
Loading
Personal Weather Stations






























Interactive Weather Map New forecast layout! Learn more

10-Day Weather Forecast

Advertisements
Track Severe Weather on mobile